Time;durP1;ratioP1;P1;durP2;ratioP2;P2;SDS_P1;SDS_P2;PMS_P1;PMS_P2;Temp;Humidity;BMP_temperature;BMP_pressure;BME280_temperature;BME280_humidity;BME280_pressure;Samples;Min_cycle;Max_cycle;Signal;HPM_P1;HPM_P2
2023/12/17 00:00:17;;;;;;;;;;;10.20;99.90;;;;;;8424798;28;20290;-70
2023/12/17 00:04:19;;;;;;;;;;;10.20;99.90;;;;;;8431479;28;19924;-70
2023/12/17 00:23:29;;;;;;;;;;;10.20;99.90;;;;;;8409896;28;19927;-70
2023/12/17 00:27:31;;;;;;;;;;;10.20;99.90;;;;;;8427709;28;19947;-70
2023/12/17 00:31:33;;;;;;;;;;;10.20;99.90;;;;;;8437210;28;19928;-70
2023/12/17 00:35:34;;;;;;;;;;;10.20;99.90;;;;;;8421969;28;19936;-71
2023/12/17 00:39:36;;;;;;;;;;;10.20;99.90;;;;;;8431368;28;19977;-71
2023/12/17 00:43:38;;;;;;;;;;;10.20;99.90;;;;;;8424982;28;19928;-70
2023/12/17 00:47:39;;;;;;;;;;;10.20;99.90;;;;;;8431290;28;20338;-70
2023/12/17 00:51:42;;;;;;;;;;;10.20;99.90;;;;;;8447510;27;19924;-70
2023/12/17 00:55:43;;;;;;;;;;;10.30;99.90;;;;;;8440388;28;19924;-71
2023/12/17 00:59:45;;;;;;;;;;;10.30;99.90;;;;;;8424811;28;19931;-70
2023/12/17 01:03:46;;;;;;;;;;;10.30;99.90;;;;;;8417059;28;19928;-71
2023/12/17 01:07:48;;;;;;;;;;;10.30;99.90;;;;;;8422487;28;19971;-71
2023/12/17 01:26:44;;;;;;;;;;;10.30;99.90;;;;;;8374915;28;20392;-70
2023/12/17 01:30:45;;;;;;;;;;;10.20;99.90;;;;;;8371524;28;19924;-70
2023/12/17 01:34:47;;;;;;;;;;;10.30;99.90;;;;;;8363099;28;19932;-71
2023/12/17 01:38:49;;;;;;;;;;;10.30;99.90;;;;;;8364468;28;20371;-71
2023/12/17 01:42:53;;;;;;;;;;;10.30;99.90;;;;;;8366662;28;19933;-71
2023/12/17 01:46:56;;;;;;;;;;;10.20;99.90;;;;;;8363293;28;19932;-71
2023/12/17 01:50:57;;;;;;;;;;;10.20;99.90;;;;;;8356316;28;20492;-70
2023/12/17 01:54:59;;;;;;;;;;;10.20;99.90;;;;;;8384524;28;19925;-70
2023/12/17 01:59:01;;;;;;;;;;;10.20;99.90;;;;;;8369204;28;19925;-70
2023/12/17 02:03:03;;;;;;;;;;;10.20;99.90;;;;;;8364037;28;19935;-70
2023/12/17 02:07:05;;;;;;;;;;;10.20;99.90;;;;;;8368135;28;19986;-70
2023/12/17 02:11:07;;;;;;;;;;;10.20;99.90;;;;;;8358002;28;20376;-70
2023/12/17 02:15:08;;;;;;;;;;;10.20;99.90;;;;;;8364634;28;19932;-70
2023/12/17 02:19:10;;;;;;;;;;;10.20;99.90;;;;;;8372476;28;20407;-70
2023/12/17 02:23:12;;;;;;;;;;;10.20;99.90;;;;;;8412327;28;19936;-70
2023/12/17 02:27:21;;;;;;;;;;;10.20;99.90;;;;;;8431700;28;20303;-70
2023/12/17 02:31:23;;;;;;;;;;;10.20;99.90;;;;;;8439058;28;19924;-70
2023/12/17 02:35:25;;;;;;;;;;;10.20;99.90;;;;;;8447560;28;19924;-71
2023/12/17 02:39:28;;;;;;;;;;;10.20;99.90;;;;;;8445403;28;19931;-70
2023/12/17 02:43:30;;;;;;;;;;;10.20;99.90;;;;;;8436202;28;19969;-70
2023/12/17 02:47:31;;;;;;;;;;;10.20;99.90;;;;;;8439195;28;19941;-70
2023/12/17 02:51:33;;;;;;;;;;;10.20;99.90;;;;;;8421698;28;19924;-70
2023/12/17 02:55:35;;;;;;;;;;;10.30;99.90;;;;;;8425060;28;19932;-70
2023/12/17 02:59:39;;;;;;;;;;;10.30;99.90;;;;;;8424538;28;20392;-70
2023/12/17 03:03:41;;;;;;;;;;;10.30;99.90;;;;;;8425138;28;19924;-70
2023/12/17 03:07:42;;;;;;;;;;;10.20;99.90;;;;;;8424202;28;20024;-71
2023/12/17 03:11:45;;;;;;;;;;;10.20;99.90;;;;;;8423791;28;19932;-71
2023/12/17 03:15:46;;;;;;;;;;;10.20;99.90;;;;;;8424914;28;19994;-71
2023/12/17 03:19:48;;;;;;;;;;;10.20;99.90;;;;;;8423742;28;20352;-71
2023/12/17 03:23:50;;;;;;;;;;;10.20;99.90;;;;;;8422807;28;19971;-71
2023/12/17 03:27:52;;;;;;;;;;;10.20;99.90;;;;;;8425208;28;19931;-71
2023/12/17 03:31:53;;;;;;;;;;;10.20;99.90;;;;;;8424136;28;19924;-70
2023/12/17 03:35:55;;;;;;;;;;;10.20;99.90;;;;;;8425377;28;20000;-70
2023/12/17 03:39:57;;;;;;;;;;;10.20;99.90;;;;;;8426589;28;19930;-70
2023/12/17 03:54:07;;;;;;;;;;;10.10;99.90;;;;;;8437727;28;20032;-70
2023/12/17 03:58:08;;;;;;;;;;;10.10;99.90;;;;;;8440566;28;20272;-71
2023/12/17 04:02:10;;;;;;;;;;;10.10;99.90;;;;;;8443359;28;19970;-71
2023/12/17 04:06:12;;;;;;;;;;;10.10;99.90;;;;;;8422971;28;19924;-71
2023/12/17 04:10:14;;;;;;;;;;;10.10;99.90;;;;;;8431260;28;19935;-70
2023/12/17 04:14:15;;;;;;;;;;;10.10;99.90;;;;;;8434756;28;19931;-71
2023/12/17 04:23:21;;;;;;;;;;;10.00;99.90;;;;;;8425344;28;19946;-70
2023/12/17 04:27:22;;;;;;;;;;;10.00;99.90;;;;;;8445180;28;20005;-71
2023/12/17 04:31:24;;;;;;;;;;;10.00;99.90;;;;;;8434988;28;19971;-71
2023/12/17 04:35:26;;;;;;;;;;;10.00;99.90;;;;;;8448523;28;19924;-70
2023/12/17 04:39:28;;;;;;;;;;;9.90;99.90;;;;;;8441210;28;19928;-70
2023/12/17 04:43:30;;;;;;;;;;;9.90;99.90;;;;;;8435440;28;19924;-71
2023/12/17 04:47:31;;;;;;;;;;;9.90;99.90;;;;;;8434474;28;19924;-71
2023/12/17 04:51:33;;;;;;;;;;;9.90;99.90;;;;;;8437472;28;19932;-71
2023/12/17 04:55:35;;;;;;;;;;;9.90;99.90;;;;;;8427213;28;19932;-71
2023/12/17 04:59:36;;;;;;;;;;;9.90;99.90;;;;;;8435338;28;20402;-71
2023/12/17 05:03:38;;;;;;;;;;;9.80;99.90;;;;;;8430559;28;19935;-71
2023/12/17 05:07:40;;;;;;;;;;;9.80;99.90;;;;;;8421570;28;20384;-71
2023/12/17 05:11:42;;;;;;;;;;;9.80;99.90;;;;;;8423185;28;20275;-71
2023/12/17 05:15:44;;;;;;;;;;;9.80;99.90;;;;;;8428791;28;19928;-71
2023/12/17 05:19:45;;;;;;;;;;;9.80;99.90;;;;;;8430282;28;19924;-70
2023/12/17 05:23:47;;;;;;;;;;;9.80;99.90;;;;;;8412943;28;20380;-70
2023/12/17 05:27:49;;;;;;;;;;;9.80;99.90;;;;;;8428017;28;19932;-71
2023/12/17 05:31:51;;;;;;;;;;;9.80;99.90;;;;;;8433338;28;19923;-70
2023/12/17 05:35:52;;;;;;;;;;;9.80;99.90;;;;;;8429149;28;19963;-70
2023/12/17 05:39:54;;;;;;;;;;;9.80;99.90;;;;;;8424164;28;20333;-71
2023/12/17 05:43:56;;;;;;;;;;;9.80;99.90;;;;;;8434270;28;19924;-71
2023/12/17 05:47:58;;;;;;;;;;;9.80;99.90;;;;;;8440076;28;20297;-71
2023/12/17 05:52:00;;;;;;;;;;;9.80;99.90;;;;;;8434560;28;19953;-71
2023/12/17 05:56:02;;;;;;;;;;;9.80;99.90;;;;;;8431451;28;19924;-71
2023/12/17 06:00:03;;;;;;;;;;;9.80;99.90;;;;;;8426340;28;19924;-71
2023/12/17 06:04:05;;;;;;;;;;;9.80;99.90;;;;;;8426428;28;19931;-71
2023/12/17 06:08:07;;;;;;;;;;;9.80;99.90;;;;;;8431608;28;19928;-71
2023/12/17 06:12:08;;;;;;;;;;;9.80;99.90;;;;;;8437651;28;19932;-71
2023/12/17 06:16:13;;;;;;;;;;;9.80;99.90;;;;;;8443039;28;20390;-71
2023/12/17 06:20:15;;;;;;;;;;;9.80;99.90;;;;;;8434399;28;19931;-71
2023/12/17 06:24:17;;;;;;;;;;;9.80;99.90;;;;;;8432202;28;20022;-71
2023/12/17 06:28:23;;;;;;;;;;;9.80;99.90;;;;;;8426991;28;19923;-71
2023/12/17 06:32:24;;;;;;;;;;;9.80;99.90;;;;;;8427744;28;19928;-71
2023/12/17 06:36:28;;;;;;;;;;;9.80;99.90;;;;;;8423676;28;19930;-71
2023/12/17 06:40:29;;;;;;;;;;;9.80;99.90;;;;;;8430452;28;19924;-71
2023/12/17 06:44:31;;;;;;;;;;;9.80;99.90;;;;;;8454630;27;19924;-71
2023/12/17 06:48:33;;;;;;;;;;;9.70;99.90;;;;;;8437901;28;19928;-71
2023/12/17 06:52:35;;;;;;;;;;;9.70;99.90;;;;;;8433258;28;19975;-70
2023/12/17 06:56:37;;;;;;;;;;;9.70;99.90;;;;;;8434509;28;20071;-70
2023/12/17 07:00:38;;;;;;;;;;;9.80;99.90;;;;;;8427382;28;19924;-71
2023/12/17 07:04:40;;;;;;;;;;;9.70;99.90;;;;;;8445205;28;19924;-71
2023/12/17 07:08:42;;;;;;;;;;;9.70;99.90;;;;;;8443330;28;19943;-70
2023/12/17 07:12:43;;;;;;;;;;;9.70;99.90;;;;;;8445536;28;19931;-70
2023/12/17 07:16:46;;;;;;;;;;;9.70;99.90;;;;;;8445821;28;19924;-71
2023/12/17 07:20:49;;;;;;;;;;;9.70;99.90;;;;;;8447444;28;20272;-71
2023/12/17 07:24:50;;;;;;;;;;;9.70;99.90;;;;;;8431412;28;19981;-71
2023/12/17 07:28:52;;;;;;;;;;;9.70;99.90;;;;;;8424513;28;19924;-71
2023/12/17 07:32:54;;;;;;;;;;;9.60;99.90;;;;;;8423108;28;19931;-71
2023/12/17 07:36:56;;;;;;;;;;;9.60;99.90;;;;;;8438226;28;20001;-71
2023/12/17 07:40:57;;;;;;;;;;;9.60;99.90;;;;;;8431980;28;19932;-71
2023/12/17 07:44:59;;;;;;;;;;;9.60;99.90;;;;;;8425145;28;19932;-71
2023/12/17 07:49:01;;;;;;;;;;;9.60;99.90;;;;;;8433301;28;19924;-70
2023/12/17 07:53:04;;;;;;;;;;;9.60;99.90;;;;;;8431334;28;21582;-70
2023/12/17 07:57:06;;;;;;;;;;;9.60;99.90;;;;;;8446716;28;19947;-70
2023/12/17 08:01:09;;;;;;;;;;;9.60;99.90;;;;;;8429193;28;19927;-70
2023/12/17 08:05:11;;;;;;;;;;;9.50;99.90;;;;;;8443667;28;19928;-71
2023/12/17 08:09:13;;;;;;;;;;;9.50;99.90;;;;;;8423579;28;19924;-70
2023/12/17 08:13:15;;;;;;;;;;;9.50;99.90;;;;;;8431024;28;19924;-71
2023/12/17 08:17:19;;;;;;;;;;;9.40;99.90;;;;;;8425589;28;20306;-70
2023/12/17 08:21:21;;;;;;;;;;;9.40;99.90;;;;;;8424435;28;19996;-70
2023/12/17 08:25:22;;;;;;;;;;;9.40;99.90;;;;;;8439991;28;19924;-71
2023/12/17 08:29:24;;;;;;;;;;;9.40;99.90;;;;;;8445358;28;19924;-70
2023/12/17 08:33:26;;;;;;;;;;;9.40;99.90;;;;;;8425600;28;19924;-70
2023/12/17 08:37:29;;;;;;;;;;;9.40;99.90;;;;;;8431139;28;19970;-71
2023/12/17 08:41:33;;;;;;;;;;;9.40;99.90;;;;;;8430164;28;19967;-70
2023/12/17 08:45:35;;;;;;;;;;;9.40;99.90;;;;;;8417617;28;19924;-70
2023/12/17 08:49:36;;;;;;;;;;;9.40;99.90;;;;;;8414542;28;19930;-70
2023/12/17 08:53:39;;;;;;;;;;;9.40;99.90;;;;;;8411269;28;19925;-70
2023/12/17 08:57:41;;;;;;;;;;;9.40;99.90;;;;;;8426849;28;19924;-70
2023/12/17 09:01:43;;;;;;;;;;;9.40;99.90;;;;;;8435500;28;20340;-70
2023/12/17 09:05:45;;;;;;;;;;;9.40;99.90;;;;;;8430025;28;19931;-70
2023/12/17 09:09:46;;;;;;;;;;;9.40;99.90;;;;;;8429193;28;19924;-70
2023/12/17 09:13:48;;;;;;;;;;;9.40;99.90;;;;;;8429941;28;19925;-70
2023/12/17 09:17:51;;;;;;;;;;;9.30;99.90;;;;;;8447353;28;19928;-70
2023/12/17 09:21:53;;;;;;;;;;;9.30;99.90;;;;;;8434430;28;19923;-71
2023/12/17 09:25:57;;;;;;;;;;;9.30;99.90;;;;;;8432695;28;19924;-70
2023/12/17 09:29:58;;;;;;;;;;;9.30;99.90;;;;;;8418314;28;21278;-70
2023/12/17 09:34:00;;;;;;;;;;;9.20;99.90;;;;;;8420582;28;19932;-70
2023/12/17 09:38:02;;;;;;;;;;;9.20;99.90;;;;;;8418024;28;20466;-70
2023/12/17 09:42:03;;;;;;;;;;;9.10;99.90;;;;;;8426906;28;20287;-70
2023/12/17 09:46:05;;;;;;;;;;;9.10;99.90;;;;;;8445783;27;19924;-70
2023/12/17 09:50:09;;;;;;;;;;;9.10;99.90;;;;;;8418576;28;19924;-70
2023/12/17 09:54:10;;;;;;;;;;;9.10;99.90;;;;;;8434083;28;19982;-70
2023/12/17 09:58:12;;;;;;;;;;;9.10;99.90;;;;;;8439050;28;20427;-70
2023/12/17 10:02:15;;;;;;;;;;;9.10;99.90;;;;;;8419908;28;19930;-70
2023/12/17 10:06:18;;;;;;;;;;;9.10;99.90;;;;;;8420309;28;19950;-70
2023/12/17 10:10:20;;;;;;;;;;;9.10;99.90;;;;;;8431840;28;19932;-70
2023/12/17 10:14:22;;;;;;;;;;;9.00;99.90;;;;;;8427733;28;19924;-70
2023/12/17 10:18:24;;;;;;;;;;;9.00;99.90;;;;;;8430282;28;19931;-70
2023/12/17 10:22:26;;;;;;;;;;;8.90;99.90;;;;;;8429369;28;19928;-70
2023/12/17 10:26:40;;;;;;;;;;;9.00;99.90;;;;;;8425480;28;20404;-70
2023/12/17 10:30:41;;;;;;;;;;;9.00;99.90;;;;;;8417501;28;19928;-70
2023/12/17 10:34:44;;;;;;;;;;;9.00;99.90;;;;;;8426326;28;19924;-70
2023/12/17 10:38:47;;;;;;;;;;;8.90;99.90;;;;;;8421745;28;19963;-70
2023/12/17 10:42:49;;;;;;;;;;;8.90;99.90;;;;;;8423021;28;19935;-70
2023/12/17 10:46:53;;;;;;;;;;;9.00;99.90;;;;;;8427701;28;19924;-70
2023/12/17 10:50:56;;;;;;;;;;;8.90;99.90;;;;;;8430483;28;19939;-70
2023/12/17 10:54:57;;;;;;;;;;;9.00;99.90;;;;;;8435161;28;19969;-70
2023/12/17 10:58:59;;;;;;;;;;;8.90;99.90;;;;;;8427914;28;19931;-70
2023/12/17 11:03:05;;;;;;;;;;;8.90;99.90;;;;;;8430740;28;19928;-70
2023/12/17 11:07:06;;;;;;;;;;;8.90;99.90;;;;;;8438374;28;20298;-70
2023/12/17 11:11:09;;;;;;;;;;;9.00;99.90;;;;;;8453175;28;19927;-70
2023/12/17 11:15:14;;;;;;;;;;;9.00;99.90;;;;;;8438221;28;19928;-70
2023/12/17 11:19:16;;;;;;;;;;;9.10;99.90;;;;;;8439238;28;20283;-70
2023/12/17 11:23:18;;;;;;;;;;;9.20;99.90;;;;;;8446608;28;19931;-70
2023/12/17 11:27:22;;;;;;;;;;;9.20;99.90;;;;;;8436223;28;19932;-70
2023/12/17 11:31:24;;;;;;;;;;;9.30;99.90;;;;;;8417172;28;19954;-70
2023/12/17 11:35:30;;;;;;;;;;;9.30;99.90;;;;;;8429620;28;20436;-70
2023/12/17 11:39:31;;;;;;;;;;;9.50;99.90;;;;;;8430268;28;19928;-70
2023/12/17 11:43:33;;;;;;;;;;;10.20;99.90;;;;;;8415436;28;20030;-71
2023/12/17 11:47:35;;;;;;;;;;;10.90;99.90;;;;;;8413419;28;19928;-70
2023/12/17 11:51:36;;;;;;;;;;;11.50;99.90;;;;;;8422271;28;19952;-70
2023/12/17 11:55:42;;;;;;;;;;;11.70;99.90;;;;;;8428950;28;19928;-70
2023/12/17 11:59:44;;;;;;;;;;;11.80;99.90;;;;;;8420122;28;20272;-71
2023/12/17 12:03:45;;;;;;;;;;;11.90;99.90;;;;;;8419072;28;19940;-70
2023/12/17 12:07:52;;;;;;;;;;;12.00;99.90;;;;;;8421234;28;20669;-71
2023/12/17 12:11:53;;;;;;;;;;;12.20;99.90;;;;;;8423125;28;20291;-71
2023/12/17 12:15:56;;;;;;;;;;;12.40;99.90;;;;;;8426214;28;19971;-71
2023/12/17 12:19:57;;;;;;;;;;;12.60;99.90;;;;;;8420190;28;19931;-71
2023/12/17 12:24:04;;;;;;;;;;;12.90;99.90;;;;;;8419738;28;19953;-71
2023/12/17 12:28:19;;;;;;;;;;;12.90;99.90;;;;;;8418162;28;19932;-71
2023/12/17 12:32:26;;;;;;;;;;;13.00;99.90;;;;;;8426682;28;19924;-70
2023/12/17 12:37:03;;;;;;;;;;;13.20;99.90;;;;;;8423719;28;20019;-70
2023/12/17 12:41:12;;;;;;;;;;;13.20;99.90;;;;;;8383119;28;20366;-71
2023/12/17 12:45:14;;;;;;;;;;;13.10;99.90;;;;;;8423513;28;19973;-71
2023/12/17 12:49:17;;;;;;;;;;;13.10;99.90;;;;;;8455522;27;19967;-70
2023/12/17 12:53:20;;;;;;;;;;;13.40;99.90;;;;;;8421734;28;19924;-71
2023/12/17 12:57:26;;;;;;;;;;;13.70;99.90;;;;;;8421875;28;19993;-71
2023/12/17 13:01:28;;;;;;;;;;;13.60;99.90;;;;;;8422312;28;19992;-71
2023/12/17 13:05:30;;;;;;;;;;;13.80;99.90;;;;;;8418805;28;20267;-71
2023/12/17 13:09:33;;;;;;;;;;;13.80;99.90;;;;;;8426535;28;20387;-71
2023/12/17 13:13:35;;;;;;;;;;;13.90;99.90;;;;;;8431977;28;19975;-71
2023/12/17 13:17:37;;;;;;;;;;;13.90;99.90;;;;;;8431734;28;19935;-71
2023/12/17 13:21:38;;;;;;;;;;;13.80;99.90;;;;;;8423494;28;20291;-70
2023/12/17 13:25:40;;;;;;;;;;;13.20;99.90;;;;;;8417195;28;20326;-71
2023/12/17 13:29:42;;;;;;;;;;;12.70;99.90;;;;;;8416770;28;19932;-70
2023/12/17 13:33:43;;;;;;;;;;;12.30;99.90;;;;;;8414337;28;19939;-71
2023/12/17 13:37:46;;;;;;;;;;;12.10;99.90;;;;;;8417800;28;19924;-71
2023/12/17 13:41:48;;;;;;;;;;;11.80;99.90;;;;;;8415951;28;20796;-71
2023/12/17 13:45:56;;;;;;;;;;;11.60;99.90;;;;;;8423023;28;19971;-71
2023/12/17 13:49:58;;;;;;;;;;;11.40;99.90;;;;;;8419508;28;20261;-70
2023/12/17 13:54:00;;;;;;;;;;;11.30;99.90;;;;;;8430294;28;19927;-70
2023/12/17 13:58:01;;;;;;;;;;;11.20;99.90;;;;;;8429198;28;20425;-70
2023/12/17 14:12:10;;;;;;;;;;;10.90;99.90;;;;;;8434057;28;20292;-70
2023/12/17 14:16:20;;;;;;;;;;;11.00;99.90;;;;;;8427173;28;20276;-70
2023/12/17 14:20:22;;;;;;;;;;;10.90;99.90;;;;;;8426957;28;19932;-70
2023/12/17 14:24:26;;;;;;;;;;;10.80;99.90;;;;;;8431033;28;19982;-71
2023/12/17 14:28:28;;;;;;;;;;;10.70;99.90;;;;;;8432449;28;19978;-70
2023/12/17 14:32:29;;;;;;;;;;;10.70;99.90;;;;;;8442389;28;19931;-70
2023/12/17 14:36:32;;;;;;;;;;;10.70;99.90;;;;;;8425364;28;19924;-70
2023/12/17 14:40:34;;;;;;;;;;;10.70;99.90;;;;;;8430217;28;20338;-70
2023/12/17 14:44:35;;;;;;;;;;;10.70;99.90;;;;;;8427252;28;19932;-70
2023/12/17 14:48:37;;;;;;;;;;;10.80;99.90;;;;;;8434483;28;19932;-70
2023/12/17 14:52:40;;;;;;;;;;;11.00;99.90;;;;;;8440379;28;19923;-70
2023/12/17 14:56:42;;;;;;;;;;;11.20;99.90;;;;;;8443254;28;19936;-70
2023/12/17 15:00:43;;;;;;;;;;;11.20;99.90;;;;;;8424665;28;19953;-71
2023/12/17 15:04:45;;;;;;;;;;;11.10;99.90;;;;;;8476196;27;19931;-70
2023/12/17 15:08:47;;;;;;;;;;;11.20;99.90;;;;;;8441342;28;19935;-70
2023/12/17 15:12:49;;;;;;;;;;;11.00;99.90;;;;;;8438738;28;19932;-70
2023/12/17 15:16:50;;;;;;;;;;;10.90;99.90;;;;;;8442534;28;20367;-70
2023/12/17 15:20:53;;;;;;;;;;;10.60;99.90;;;;;;8432003;28;19928;-70
2023/12/17 15:24:55;;;;;;;;;;;10.30;99.90;;;;;;8432301;28;19932;-70
2023/12/17 15:28:57;;;;;;;;;;;10.00;99.90;;;;;;8428684;28;19928;-70
2023/12/17 15:32:58;;;;;;;;;;;9.80;99.90;;;;;;8434738;28;19924;-70
2023/12/17 15:37:00;;;;;;;;;;;9.60;99.90;;;;;;8436387;28;19924;-70
2023/12/17 15:41:02;;;;;;;;;;;9.50;99.90;;;;;;8433584;28;19928;-70
2023/12/17 15:45:04;;;;;;;;;;;9.40;99.90;;;;;;8426446;28;19955;-70
2023/12/17 15:49:06;;;;;;;;;;;9.30;99.90;;;;;;8425085;28;19924;-70
2023/12/17 15:53:08;;;;;;;;;;;9.20;99.90;;;;;;8420835;28;20466;-70
2023/12/17 15:57:10;;;;;;;;;;;9.10;99.90;;;;;;8422791;28;20343;-70
2023/12/17 16:01:12;;;;;;;;;;;9.00;99.90;;;;;;8423135;28;19931;-70
2023/12/17 16:05:13;;;;;;;;;;;8.90;99.90;;;;;;8418246;28;19928;-70
2023/12/17 16:09:16;;;;;;;;;;;8.80;99.90;;;;;;8420564;28;19931;-70
2023/12/17 16:13:20;;;;;;;;;;;8.80;99.90;;;;;;8419387;28;20361;-70
2023/12/17 16:17:22;;;;;;;;;;;8.70;99.90;;;;;;8416600;28;19932;-70
2023/12/17 16:21:23;;;;;;;;;;;8.70;99.90;;;;;;8412096;28;19932;-70
2023/12/17 16:25:25;;;;;;;;;;;8.60;99.90;;;;;;8416197;28;19978;-70
2023/12/17 16:29:28;;;;;;;;;;;8.60;99.90;;;;;;8414755;28;19939;-70
2023/12/17 16:33:29;;;;;;;;;;;8.60;99.90;;;;;;8410715;28;20356;-70
2023/12/17 16:37:34;;;;;;;;;;;8.50;99.90;;;;;;8417465;28;19928;-70
2023/12/17 16:41:38;;;;;;;;;;;8.50;99.90;;;;;;8409377;28;19954;-70
2023/12/17 16:45:44;;;;;;;;;;;8.50;99.90;;;;;;8417280;28;19932;-70
2023/12/17 16:49:46;;;;;;;;;;;8.50;99.90;;;;;;8414910;28;20350;-70
2023/12/17 16:53:48;;;;;;;;;;;8.40;99.90;;;;;;8414598;28;20445;-70
2023/12/17 16:57:50;;;;;;;;;;;8.30;99.90;;;;;;8414163;28;19932;-70
2023/12/17 17:01:53;;;;;;;;;;;8.30;99.90;;;;;;8410026;28;19931;-70
2023/12/17 17:05:56;;;;;;;;;;;8.20;99.90;;;;;;8403840;28;20444;-70
2023/12/17 17:09:58;;;;;;;;;;;8.20;99.90;;;;;;8412629;28;19924;-70
2023/12/17 17:14:00;;;;;;;;;;;8.10;99.90;;;;;;8403628;28;19970;-70
2023/12/17 17:18:01;;;;;;;;;;;8.00;99.90;;;;;;8393409;28;20311;-70
2023/12/17 17:22:03;;;;;;;;;;;8.00;99.90;;;;;;8408944;28;19938;-70
2023/12/17 17:26:05;;;;;;;;;;;8.00;99.90;;;;;;8415670;28;19933;-70
2023/12/17 17:30:08;;;;;;;;;;;7.90;99.90;;;;;;8410160;28;20311;-70
2023/12/17 17:34:10;;;;;;;;;;;7.80;99.90;;;;;;8413269;28;19976;-70
2023/12/17 17:38:12;;;;;;;;;;;7.80;99.90;;;;;;8429721;28;19977;-70
2023/12/17 17:42:14;;;;;;;;;;;7.80;99.90;;;;;;8442057;28;20379;-70
2023/12/17 17:46:17;;;;;;;;;;;7.70;99.90;;;;;;8432436;28;20278;-70
2023/12/17 17:50:19;;;;;;;;;;;7.70;99.90;;;;;;8411449;28;19928;-70
2023/12/17 17:54:20;;;;;;;;;;;7.60;99.90;;;;;;8427787;28;19931;-70
2023/12/17 17:58:22;;;;;;;;;;;7.60;99.90;;;;;;8440893;28;19952;-70
2023/12/17 18:02:24;;;;;;;;;;;7.60;99.90;;;;;;8421631;28;19924;-70
2023/12/17 18:06:26;;;;;;;;;;;7.50;99.90;;;;;;8411184;28;19935;-70
2023/12/17 18:10:29;;;;;;;;;;;7.50;99.90;;;;;;8412121;28;19932;-70
2023/12/17 18:14:32;;;;;;;;;;;7.40;99.90;;;;;;8416888;28;19936;-70
2023/12/17 18:18:35;;;;;;;;;;;7.40;99.90;;;;;;8408850;28;19933;-70
2023/12/17 18:22:36;;;;;;;;;;;7.40;99.90;;;;;;8414589;28;20039;-70
2023/12/17 18:26:38;;;;;;;;;;;7.40;99.90;;;;;;8409398;28;19938;-70
2023/12/17 18:30:41;;;;;;;;;;;7.30;99.90;;;;;;8414267;28;19932;-70
2023/12/17 18:34:44;;;;;;;;;;;7.30;99.90;;;;;;8429117;28;19977;-70
2023/12/17 18:38:45;;;;;;;;;;;7.20;99.90;;;;;;8409676;28;19932;-70
2023/12/17 18:42:47;;;;;;;;;;;7.20;99.90;;;;;;8412947;28;19932;-70
2023/12/17 18:46:49;;;;;;;;;;;7.10;99.90;;;;;;8410402;28;20024;-70
2023/12/17 18:50:51;;;;;;;;;;;7.10;99.90;;;;;;8412514;28;20310;-70
2023/12/17 18:55:00;;;;;;;;;;;7.00;99.90;;;;;;8413878;28;19924;-70
2023/12/17 18:59:01;;;;;;;;;;;7.00;99.90;;;;;;8407792;28;19924;-70
2023/12/17 19:03:08;;;;;;;;;;;7.00;99.90;;;;;;8412308;28;19950;-70
2023/12/17 19:07:10;;;;;;;;;;;6.90;99.90;;;;;;8412354;28;20036;-70
2023/12/17 19:11:12;;;;;;;;;;;6.90;99.90;;;;;;8425158;28;19977;-70
2023/12/17 19:15:13;;;;;;;;;;;6.90;99.90;;;;;;8417642;28;20014;-70
2023/12/17 19:19:15;;;;;;;;;;;6.90;99.90;;;;;;8409188;28;19971;-70
2023/12/17 19:23:17;;;;;;;;;;;6.90;99.90;;;;;;8415983;28;19942;-70
2023/12/17 19:27:18;;;;;;;;;;;6.90;99.90;;;;;;8429952;28;19924;-70
2023/12/17 19:31:20;;;;;;;;;;;6.80;99.90;;;;;;8431726;28;19969;-70
2023/12/17 19:35:22;;;;;;;;;;;6.70;99.90;;;;;;8425108;28;19924;-70
2023/12/17 19:39:24;;;;;;;;;;;6.60;99.90;;;;;;8434525;28;19939;-70
2023/12/17 19:43:25;;;;;;;;;;;6.60;99.90;;;;;;8428915;28;19938;-70
2023/12/17 19:47:27;;;;;;;;;;;6.50;99.90;;;;;;8427561;28;19939;-70
2023/12/17 19:51:29;;;;;;;;;;;6.50;99.90;;;;;;8427836;28;20264;-70
2023/12/17 19:55:30;;;;;;;;;;;6.40;99.90;;;;;;8428034;28;19989;-70
2023/12/17 19:59:32;;;;;;;;;;;6.40;99.90;;;;;;8426398;28;19932;-70
2023/12/17 20:03:34;;;;;;;;;;;6.40;99.90;;;;;;8442285;28;19928;-70
2023/12/17 20:07:36;;;;;;;;;;;6.40;99.90;;;;;;8432602;28;19934;-70
2023/12/17 20:11:37;;;;;;;;;;;6.40;99.90;;;;;;8424992;28;19928;-70
2023/12/17 20:15:39;;;;;;;;;;;6.50;99.90;;;;;;8426395;28;19931;-70
2023/12/17 20:19:42;;;;;;;;;;;6.40;99.90;;;;;;8434898;28;19994;-70
2023/12/17 20:23:47;;;;;;;;;;;6.40;99.90;;;;;;8427986;28;19928;-70
2023/12/17 20:27:48;;;;;;;;;;;6.40;99.90;;;;;;8423980;28;19924;-70
2023/12/17 20:31:50;;;;;;;;;;;6.40;99.90;;;;;;8434753;28;19932;-70
2023/12/17 20:35:53;;;;;;;;;;;6.30;99.90;;;;;;8428582;28;19975;-70
2023/12/17 20:39:55;;;;;;;;;;;6.30;99.90;;;;;;8426577;28;19939;-70
2023/12/17 20:43:56;;;;;;;;;;;6.30;99.90;;;;;;8421643;28;19994;-70
2023/12/17 20:47:58;;;;;;;;;;;6.30;99.90;;;;;;8431128;28;19924;-70
2023/12/17 20:52:01;;;;;;;;;;;6.30;99.90;;;;;;8431319;27;20355;-70
2023/12/17 20:56:02;;;;;;;;;;;6.30;99.90;;;;;;8427170;28;19924;-69
2023/12/17 21:00:05;;;;;;;;;;;6.30;99.90;;;;;;8429922;28;19974;-70
2023/12/17 21:04:07;;;;;;;;;;;6.30;99.90;;;;;;8428291;28;19924;-70
2023/12/17 21:08:08;;;;;;;;;;;6.40;99.90;;;;;;8424892;28;19971;-69
2023/12/17 21:12:10;;;;;;;;;;;6.40;99.90;;;;;;8429103;28;19932;-70
2023/12/17 21:16:12;;;;;;;;;;;6.50;99.90;;;;;;8422887;28;19924;-70
2023/12/17 21:20:15;;;;;;;;;;;6.50;99.90;;;;;;8432638;28;19924;-70
2023/12/17 21:24:16;;;;;;;;;;;6.60;99.90;;;;;;8418731;28;19928;-70
2023/12/17 21:28:18;;;;;;;;;;;6.60;99.90;;;;;;8430700;28;19924;-69
2023/12/17 21:32:20;;;;;;;;;;;6.70;99.90;;;;;;8436414;28;19931;-70
2023/12/17 21:36:22;;;;;;;;;;;6.70;99.90;;;;;;8427024;28;19946;-69
2023/12/17 21:40:23;;;;;;;;;;;6.70;99.90;;;;;;8433461;28;21765;-70
2023/12/17 21:44:25;;;;;;;;;;;6.80;99.90;;;;;;8418375;28;20428;-70
2023/12/17 21:48:27;;;;;;;;;;;6.80;99.90;;;;;;8421936;28;19928;-70
2023/12/17 21:52:29;;;;;;;;;;;6.80;99.90;;;;;;8454154;27;19947;-70
2023/12/17 21:56:33;;;;;;;;;;;6.80;99.90;;;;;;8420319;28;19925;-70
2023/12/17 22:00:35;;;;;;;;;;;6.80;99.90;;;;;;8426894;28;19969;-70
2023/12/17 22:04:37;;;;;;;;;;;6.90;99.90;;;;;;8434551;28;20343;-70
2023/12/17 22:08:39;;;;;;;;;;;6.90;99.90;;;;;;8423334;28;19930;-70
2023/12/17 22:12:41;;;;;;;;;;;6.90;99.90;;;;;;8426429;28;19990;-70
2023/12/17 22:16:43;;;;;;;;;;;6.90;99.90;;;;;;8423068;28;20011;-70
2023/12/17 22:20:44;;;;;;;;;;;6.90;99.90;;;;;;8429434;28;19927;-70
2023/12/17 22:24:46;;;;;;;;;;;7.00;99.90;;;;;;8427470;28;19931;-70
2023/12/17 22:28:47;;;;;;;;;;;7.00;99.90;;;;;;8413685;28;19931;-70
2023/12/17 22:32:49;;;;;;;;;;;7.00;99.90;;;;;;8426677;28;20434;-70
2023/12/17 22:36:51;;;;;;;;;;;7.00;99.90;;;;;;8423016;28;19936;-70
2023/12/17 22:40:53;;;;;;;;;;;7.00;99.90;;;;;;8433724;28;20378;-70
2023/12/17 22:44:55;;;;;;;;;;;7.00;99.90;;;;;;8415504;28;19935;-70
2023/12/17 22:48:56;;;;;;;;;;;7.00;99.90;;;;;;8435388;28;19976;-70
2023/12/17 22:52:58;;;;;;;;;;;7.00;99.90;;;;;;8438648;28;19986;-70
2023/12/17 22:57:00;;;;;;;;;;;7.00;99.90;;;;;;8428262;28;19970;-70
2023/12/17 23:01:02;;;;;;;;;;;7.00;99.90;;;;;;8431869;28;19932;-70
2023/12/17 23:05:04;;;;;;;;;;;7.00;99.90;;;;;;8438924;28;19927;-70
2023/12/17 23:09:06;;;;;;;;;;;7.00;99.90;;;;;;8427521;28;19977;-70
2023/12/17 23:13:08;;;;;;;;;;;7.00;99.90;;;;;;8422931;28;19928;-70
2023/12/17 23:17:10;;;;;;;;;;;7.00;99.90;;;;;;8433224;28;19947;-70
2023/12/17 23:21:12;;;;;;;;;;;7.00;99.90;;;;;;8428568;28;19924;-70
2023/12/17 23:25:14;;;;;;;;;;;7.00;99.90;;;;;;8438069;28;19930;-70
2023/12/17 23:29:15;;;;;;;;;;;7.00;99.90;;;;;;8439130;28;19928;-70
2023/12/17 23:33:17;;;;;;;;;;;7.10;99.90;;;;;;8436759;28;19928;-70
2023/12/17 23:37:19;;;;;;;;;;;7.10;99.90;;;;;;8425381;28;19924;-70
2023/12/17 23:41:20;;;;;;;;;;;7.10;99.90;;;;;;8434026;28;19963;-70
2023/12/17 23:45:22;;;;;;;;;;;7.10;99.90;;;;;;8439959;28;19932;-70
2023/12/17 23:49:27;;;;;;;;;;;7.10;99.90;;;;;;8435882;28;19932;-70
2023/12/17 23:53:29;;;;;;;;;;;7.10;99.90;;;;;;8429455;28;19932;-70
2023/12/17 23:57:30;;;;;;;;;;;7.10;99.90;;;;;;8434922;28;19986;-70
